createdAt,value
2018-10-06T12:34:27.011Z,996.88
2018-10-06T12:35:27.059Z,996.86
2018-10-06T12:36:26.852Z,996.86
2018-10-06T12:37:26.812Z,996.88
2018-10-06T12:38:51.621Z,996.99
2018-10-06T12:39:51.638Z,997.19
2018-10-06T12:40:51.602Z,997.05
2018-10-06T12:41:51.594Z,997.02
2018-10-06T12:42:51.581Z,996.96
2018-10-06T12:43:51.566Z,996.89
2018-10-06T12:44:51.622Z,996.79
2018-10-06T12:45:51.543Z,996.88
2018-10-06T12:46:51.543Z,996.79
2018-10-06T12:47:51.524Z,996.80
2018-10-06T12:48:51.502Z,996.79
2018-10-06T12:49:51.499Z,996.78
2018-10-06T12:50:51.521Z,996.81
2018-10-06T12:51:51.486Z,996.80
2018-10-06T12:52:51.473Z,996.86
2018-10-06T12:53:51.465Z,996.84
2018-10-06T12:54:51.454Z,996.82
2018-10-06T12:55:51.497Z,996.75
2018-10-06T12:56:51.437Z,996.80
2018-10-06T12:57:51.423Z,996.74
2018-10-06T12:58:51.557Z,996.77
2018-10-06T12:59:51.427Z,996.76
2018-10-06T13:00:51.392Z,996.76
2018-10-06T13:01:51.412Z,996.76
2018-10-06T13:02:51.376Z,996.71
2018-10-06T13:03:51.364Z,996.66
2018-10-06T13:04:51.826Z,996.70
2018-10-06T13:05:51.344Z,996.72
2018-10-06T13:06:51.364Z,996.68
2018-10-06T13:07:51.310Z,996.66
2018-10-06T13:08:51.307Z,996.66
2018-10-06T13:09:51.307Z,996.62
2018-10-06T13:10:51.922Z,996.70
2018-10-06T13:11:51.384Z,996.62
2018-10-06T13:12:51.319Z,996.61
2018-10-06T13:13:51.250Z,996.60
2018-10-06T13:14:51.251Z,996.57
2018-10-06T13:15:51.237Z,996.49
2018-10-06T13:16:51.221Z,996.50
2018-10-06T13:17:51.214Z,996.49
2018-10-06T13:18:51.272Z,996.56
2018-10-06T13:19:51.201Z,996.51
2018-10-06T13:20:51.180Z,996.49
2018-10-06T13:21:51.168Z,996.46
2018-10-06T13:22:51.152Z,996.43
2018-10-06T13:23:51.153Z,996.46
2018-10-06T13:24:51.202Z,996.44
2018-10-06T13:25:51.127Z,996.46
2018-10-06T13:26:51.113Z,996.43
2018-10-06T13:27:51.096Z,996.48
2018-10-06T13:28:51.100Z,996.46
2018-10-06T13:29:51.086Z,996.55
2018-10-06T13:30:51.112Z,996.53
2018-10-06T13:31:51.106Z,996.52
2018-10-06T13:32:51.058Z,996.58
2018-10-06T13:33:51.047Z,996.50
2018-10-06T13:34:51.088Z,996.50
2018-10-06T13:35:51.029Z,996.47
2018-10-06T13:36:51.017Z,996.59
2018-10-06T13:37:51.011Z,996.52
2018-10-06T13:38:50.996Z,996.49
2018-10-06T13:39:50.987Z,996.51
2018-10-06T13:40:51.003Z,996.47
2018-10-06T13:41:50.958Z,996.48
2018-10-06T13:42:51.223Z,996.42
2018-10-06T13:43:51.756Z,996.51
2018-10-06T13:44:51.256Z,996.50
2018-10-06T13:45:51.851Z,996.49
2018-10-06T13:46:52.639Z,996.48
2018-10-06T13:47:50.904Z,996.48
2018-10-06T13:48:50.891Z,996.54
2018-10-06T13:49:50.882Z,996.49
2018-10-06T13:50:50.873Z,996.62
2018-10-06T13:51:50.858Z,996.58
2018-10-06T13:52:50.884Z,996.57
2018-10-06T13:53:50.866Z,996.57
2018-10-06T13:54:50.840Z,996.61
2018-10-06T13:55:50.818Z,996.60
2018-10-06T13:56:50.815Z,996.63
2018-10-06T13:57:50.856Z,996.61
2018-10-06T13:58:50.832Z,996.59
2018-10-06T13:59:50.779Z,996.63
2018-10-06T14:00:50.810Z,996.62
2018-10-06T14:01:50.798Z,996.59
2018-10-06T14:02:50.753Z,996.65
2018-10-06T14:03:50.770Z,996.58
2018-10-06T14:04:50.725Z,996.61
2018-10-06T14:05:50.715Z,996.57
2018-10-06T14:06:50.705Z,996.60
2018-10-06T14:07:50.696Z,996.59
2018-10-06T14:08:50.744Z,996.55
2018-10-06T14:09:50.680Z,996.57
2018-10-06T14:10:50.684Z,996.58
2018-10-06T14:11:50.682Z,996.54
2018-10-06T14:12:50.642Z,996.53
2018-10-06T14:13:50.622Z,996.52
2018-10-06T14:14:50.652Z,996.52
2018-10-06T14:15:50.606Z,996.52
2018-10-06T14:16:50.749Z,996.44
2018-10-06T14:17:50.609Z,996.50
2018-10-06T14:18:50.579Z,996.40
2018-10-06T14:19:50.565Z,996.41
2018-10-06T14:20:50.556Z,996.44
2018-10-06T14:21:50.590Z,996.42
2018-10-06T14:22:50.528Z,996.40
2018-10-06T14:23:50.527Z,996.41
2018-10-06T14:24:50.520Z,996.42
2018-10-06T14:25:50.511Z,996.38
2018-10-06T14:26:50.486Z,996.41
2018-10-06T14:27:50.532Z,996.37
2018-10-06T14:28:50.464Z,996.35
2018-10-06T14:29:50.452Z,996.26
2018-10-06T14:30:50.457Z,996.34
2018-10-06T14:31:50.441Z,996.32
2018-10-06T14:32:50.422Z,996.23
2018-10-06T14:33:50.449Z,996.22
2018-10-06T14:34:50.465Z,996.22
2018-10-06T14:35:50.405Z,996.24
2018-10-06T14:36:50.393Z,996.24
2018-10-06T14:37:50.382Z,996.25
2018-10-06T14:38:50.369Z,996.29
2018-10-06T14:39:50.357Z,996.23
2018-10-06T14:40:50.406Z,996.24
2018-10-06T14:41:50.342Z,996.18
2018-10-06T14:42:50.324Z,996.22
2018-10-06T14:43:50.315Z,996.22
2018-10-06T14:44:50.363Z,996.19
2018-10-06T14:45:50.297Z,996.18
2018-10-06T14:46:50.286Z,996.19
2018-10-06T14:47:50.274Z,996.21
2018-10-06T14:48:50.256Z,996.13
2018-10-06T14:49:50.256Z,996.18
2018-10-06T14:50:50.293Z,996.15
2018-10-06T14:51:50.233Z,996.15
2018-10-06T14:52:50.224Z,996.12
2018-10-06T14:53:50.214Z,996.13
2018-10-06T14:54:50.203Z,996.14
2018-10-06T14:55:50.191Z,996.14
2018-10-06T14:56:50.253Z,996.13
2018-10-06T14:57:50.175Z,996.11
2018-10-06T14:58:50.159Z,996.07
2018-10-06T14:59:50.143Z,996.08
2018-10-06T15:00:50.138Z,996.08
2018-10-06T15:01:50.123Z,996.10
2018-10-06T15:02:50.144Z,996.12
2018-10-06T15:03:50.154Z,996.13
2018-10-06T15:04:50.094Z,996.09
2018-10-06T15:05:50.081Z,996.07
2018-10-06T15:06:50.070Z,996.07
2018-10-06T15:07:50.105Z,996.04
2018-10-06T15:08:50.051Z,996.10
2018-10-06T15:09:50.038Z,996.09
2018-10-06T15:10:50.028Z,996.08
2018-10-06T15:11:50.013Z,996.02
2018-10-06T15:12:50.011Z,996.05
2018-10-06T15:13:50.017Z,996.04
2018-10-06T15:14:49.982Z,996.04
2018-10-06T15:15:50.007Z,996.08
2018-10-06T15:16:49.990Z,996.05
2018-10-06T15:17:49.944Z,996.08
2018-10-06T15:18:49.942Z,996.06
2018-10-06T15:19:49.962Z,996.06
2018-10-06T15:20:49.915Z,996.05
2018-10-06T15:21:49.903Z,996.03
2018-10-06T15:22:49.897Z,996.03
2018-10-06T15:23:49.884Z,996.05
2018-10-06T15:24:49.900Z,995.97
2018-10-06T15:25:49.885Z,995.96
2018-10-06T15:26:49.855Z,995.97
2018-10-06T15:27:49.848Z,995.97
2018-10-06T15:28:49.837Z,995.98
2018-10-06T15:29:49.964Z,995.94
2018-10-06T15:30:49.817Z,995.97
2018-10-06T15:31:49.803Z,995.97
2018-10-06T15:32:49.792Z,995.94
2018-10-06T15:33:49.786Z,995.94
2018-10-06T15:34:49.764Z,995.95
2018-10-06T15:35:49.821Z,995.97
2018-10-06T15:36:49.858Z,995.91
2018-10-06T15:37:49.814Z,996.04
2018-10-06T15:38:49.737Z,996.01
2018-10-06T15:39:49.723Z,995.97
2018-10-06T15:40:49.713Z,996.03
2018-10-06T15:41:49.725Z,995.99
2018-10-06T15:42:49.789Z,995.94
2018-10-06T15:43:49.671Z,995.97
2018-10-06T15:44:49.675Z,995.93
2018-10-06T15:45:49.702Z,995.99
2018-10-06T15:46:49.651Z,995.99
2018-10-06T15:47:49.626Z,995.99
2018-10-06T15:48:49.624Z,996.02
2018-10-06T15:49:49.614Z,995.98
2018-10-06T15:50:49.646Z,996.00
2018-10-06T15:51:49.658Z,995.96
2018-10-06T15:52:49.584Z,995.98
2018-10-06T15:53:49.561Z,995.98
2018-10-06T15:54:49.560Z,995.95
2018-10-06T15:55:49.566Z,996.00
2018-10-06T15:56:49.672Z,996.00
2018-10-06T15:57:49.583Z,996.00
2018-10-06T15:58:49.510Z,996.01
2018-10-06T15:59:49.510Z,995.98
2018-10-06T16:00:49.489Z,995.96
2018-10-06T16:01:49.480Z,996.02
2018-10-06T16:02:49.585Z,996.00
2018-10-06T16:03:49.490Z,996.01
2018-10-06T16:04:49.452Z,996.02
2018-10-06T16:05:49.439Z,996.02
2018-10-06T16:06:49.429Z,996.01
2018-10-06T16:07:49.447Z,996.00
2018-10-06T16:08:49.426Z,996.04
2018-10-06T16:09:49.404Z,996.07
2018-10-06T16:10:49.413Z,996.09
2018-10-06T16:11:49.377Z,996.14
2018-10-06T16:12:49.371Z,996.11
2018-10-06T16:13:49.358Z,996.09
2018-10-06T16:14:49.354Z,996.15
2018-10-06T16:15:49.365Z,996.12
2018-10-06T16:16:49.329Z,996.20
2018-10-06T16:17:49.340Z,996.17
2018-10-06T16:18:49.306Z,996.19
2018-10-06T16:19:49.299Z,996.23
2018-10-06T16:20:49.298Z,996.21
2018-10-06T16:21:49.307Z,996.19
2018-10-06T16:22:49.267Z,996.22
2018-10-06T16:23:49.264Z,996.23
2018-10-06T16:24:49.240Z,996.21
2018-10-06T16:25:49.257Z,996.23
2018-10-06T16:26:49.286Z,996.24
2018-10-06T16:27:49.212Z,996.24
2018-10-06T16:28:49.554Z,996.22
2018-10-06T16:29:49.194Z,996.23
2018-10-06T16:30:49.196Z,996.25
2018-10-06T16:31:49.170Z,996.22
2018-10-06T16:32:49.193Z,996.25
2018-10-06T16:33:49.151Z,996.22
2018-10-06T16:34:49.148Z,996.22
2018-10-06T16:35:49.133Z,996.26
2018-10-06T16:36:49.132Z,996.21
2018-10-06T16:37:49.150Z,996.22
2018-10-06T16:38:49.103Z,996.24
2018-10-06T16:39:49.090Z,996.22
2018-10-06T16:40:49.089Z,996.24
2018-10-06T16:41:49.064Z,996.25
2018-10-06T16:42:49.063Z,996.23
2018-10-06T16:43:49.072Z,996.27
2018-10-06T16:44:49.037Z,996.27
2018-10-06T16:45:49.025Z,996.28
2018-10-06T16:46:49.020Z,996.33
2018-10-06T16:47:50.462Z,996.27
2018-10-06T16:48:49.023Z,996.31
2018-10-06T16:49:48.980Z,996.27
2018-10-06T16:50:49.034Z,996.35
2018-10-06T16:51:49.021Z,996.31
2018-10-06T16:52:48.944Z,996.28
2018-10-06T16:53:48.983Z,996.30
2018-10-06T16:54:48.934Z,996.35
2018-10-06T16:55:48.922Z,996.33
2018-10-06T16:56:48.966Z,996.33
2018-10-06T16:57:48.893Z,996.31
2018-10-06T16:58:48.893Z,996.34
2018-10-06T16:59:48.881Z,996.33
2018-10-06T17:00:48.868Z,996.32
2018-10-06T17:01:48.875Z,996.33
2018-10-06T17:02:48.935Z,996.34
2018-10-06T17:03:48.837Z,996.36
2018-10-06T17:04:48.821Z,996.36
2018-10-06T17:05:48.810Z,996.41
2018-10-06T17:06:48.801Z,996.39
2018-10-06T17:07:48.812Z,996.37
2018-10-06T17:08:48.801Z,996.40
2018-10-06T17:09:48.765Z,996.41
2018-10-06T17:10:48.745Z,996.40
2018-10-06T17:11:48.743Z,996.43
2018-10-06T17:12:48.791Z,996.49
2018-10-06T17:13:48.748Z,996.45
2018-10-06T17:14:48.737Z,996.47
2018-10-06T17:15:48.692Z,996.52
2018-10-06T17:16:48.690Z,996.48
2018-10-06T17:17:48.677Z,996.54
2018-10-06T17:18:48.659Z,996.49
2018-10-06T17:19:48.709Z,996.50
2018-10-06T17:20:48.636Z,996.50
2018-10-06T17:21:48.632Z,996.51
2018-10-06T17:22:48.617Z,996.50
2018-10-06T17:23:48.610Z,996.49
2018-10-06T17:24:48.608Z,996.49
2018-10-06T17:25:48.642Z,996.45
2018-10-06T17:26:48.576Z,996.44
2018-10-06T17:27:48.571Z,996.46
2018-10-06T17:28:48.566Z,996.45
2018-10-06T17:29:48.545Z,996.45
2018-10-06T17:30:48.542Z,996.40
2018-10-06T17:31:48.551Z,996.45
2018-10-06T17:32:48.513Z,996.38
2018-10-06T17:33:48.504Z,996.42
2018-10-06T17:34:48.482Z,996.41
2018-10-06T17:35:48.490Z,996.43
2018-10-06T17:36:48.534Z,996.45
2018-10-06T17:37:48.459Z,996.41
2018-10-06T17:38:48.515Z,996.39
2018-10-06T17:39:48.434Z,996.37
2018-10-06T17:40:48.419Z,996.42
2018-10-06T17:41:48.407Z,996.44
2018-10-06T17:42:48.455Z,996.39
2018-10-06T17:43:48.385Z,996.40
2018-10-06T17:44:48.388Z,996.37
2018-10-06T17:45:48.366Z,996.40
2018-10-06T17:46:48.364Z,996.43
2018-10-06T17:47:48.348Z,996.41
2018-10-06T17:48:48.362Z,996.41
2018-10-06T17:49:48.405Z,996.45
2018-10-06T17:50:48.499Z,996.47
2018-10-06T17:51:48.306Z,996.45
2018-10-06T17:52:48.295Z,996.43
2018-10-06T17:53:48.284Z,996.42
2018-10-06T17:54:48.311Z,996.45
2018-10-06T17:55:48.266Z,996.45
2018-10-06T17:56:48.264Z,996.43
2018-10-06T17:57:48.243Z,996.42
2018-10-06T17:58:48.272Z,996.43
2018-10-06T17:59:48.285Z,996.45
2018-10-06T18:00:48.215Z,996.45
2018-10-06T18:01:48.202Z,996.48
2018-10-06T18:02:48.192Z,996.43
2018-10-06T18:03:48.184Z,996.50
2018-10-06T18:04:48.191Z,996.53
2018-10-06T18:05:48.183Z,996.53
2018-10-06T18:06:48.139Z,996.53
2018-10-06T18:07:48.471Z,996.53
2018-10-06T18:08:48.137Z,996.55
2018-10-06T18:09:48.116Z,996.54
2018-10-06T18:10:48.124Z,996.57
2018-10-06T18:11:48.081Z,996.59
2018-10-06T18:12:48.070Z,996.63
2018-10-06T18:13:48.067Z,996.61
2018-10-06T18:14:48.048Z,996.60
2018-10-06T18:15:48.098Z,996.59
2018-10-06T18:16:48.033Z,996.59
2018-10-06T18:17:48.018Z,996.61
2018-10-06T18:18:48.019Z,996.59
2018-10-06T18:19:48.002Z,996.61
2018-10-06T18:20:47.999Z,996.60
2018-10-06T18:21:48.012Z,996.62
2018-10-06T18:22:47.974Z,996.60
2018-10-06T18:23:47.953Z,996.60
2018-10-06T18:24:47.952Z,996.66
2018-10-06T18:25:47.946Z,996.69
2018-10-06T18:26:47.994Z,996.71
2018-10-06T18:27:47.920Z,996.69
2018-10-06T18:28:47.908Z,996.68
2018-10-06T18:29:47.898Z,996.71
2018-10-06T18:30:47.885Z,996.73
2018-10-06T18:31:47.873Z,996.76
2018-10-06T18:32:47.895Z,996.76
2018-10-06T18:33:47.849Z,996.75
2018-10-06T18:34:47.842Z,996.70
2018-10-06T18:35:47.821Z,996.74
2018-10-06T18:36:47.913Z,996.75
2018-10-06T18:37:47.839Z,996.76
2018-10-06T18:38:47.800Z,996.83
2018-10-06T18:39:47.841Z,996.84
2018-10-06T18:40:47.780Z,996.80
2018-10-06T18:41:47.761Z,996.84
2018-10-06T18:42:47.780Z,996.79
2018-10-06T18:43:47.835Z,996.86
2018-10-06T18:44:47.732Z,996.85
2018-10-06T18:45:47.723Z,996.90
2018-10-06T18:46:47.723Z,996.89
2018-10-06T18:47:47.756Z,996.89
2018-10-06T18:48:47.700Z,996.90
2018-10-06T18:49:47.675Z,996.92
2018-10-06T18:50:47.675Z,996.94
2018-10-06T18:51:47.662Z,996.91
2018-10-06T18:52:47.665Z,996.93
2018-10-06T18:53:47.729Z,996.97
2018-10-06T18:54:47.638Z,997.00
2018-10-06T18:55:47.616Z,996.99
2018-10-06T18:56:47.605Z,996.97
2018-10-06T18:57:47.699Z,996.98
2018-10-06T18:58:47.577Z,997.06
2018-10-06T18:59:47.589Z,997.08
2018-10-06T19:00:47.576Z,997.18
2018-10-06T19:01:47.553Z,997.15
2018-10-06T19:02:47.532Z,997.13
2018-10-06T19:03:47.657Z,997.18
2018-10-06T19:04:47.582Z,997.20
2018-10-06T19:05:47.510Z,997.18
2018-10-06T19:06:47.504Z,997.18
2018-10-06T19:07:47.475Z,997.20
2018-10-06T19:08:47.475Z,997.22
2018-10-06T19:09:47.469Z,997.18
2018-10-06T19:10:47.475Z,997.21
2018-10-06T19:11:47.442Z,997.23
2018-10-06T19:12:47.428Z,997.21
2018-10-06T19:13:47.429Z,997.22
2018-10-06T19:14:47.415Z,997.22
2018-10-06T19:15:47.461Z,997.24
2018-10-06T19:16:47.393Z,997.23
2018-10-06T19:17:47.377Z,997.26
2018-10-06T19:18:47.355Z,997.31
2018-10-06T19:19:47.501Z,997.29
2018-10-06T19:20:47.347Z,997.28
2018-10-06T19:21:47.381Z,997.33
2018-10-06T19:22:47.365Z,997.30
2018-10-06T19:23:47.350Z,997.32
2018-10-06T19:24:47.304Z,997.31
2018-10-06T19:25:47.316Z,997.33
2018-10-06T19:26:47.268Z,997.36
2018-10-06T19:27:47.328Z,997.36
2018-10-06T19:28:47.256Z,997.43
2018-10-06T19:29:47.247Z,997.37
2018-10-06T19:30:47.226Z,997.38
2018-10-06T19:31:47.215Z,997.33
2018-10-06T19:32:47.216Z,997.32
2018-10-06T19:33:47.229Z,997.37
2018-10-06T19:34:47.215Z,997.37
2018-10-06T19:35:47.177Z,997.41
2018-10-06T19:36:47.173Z,997.40
2018-10-06T19:37:47.194Z,997.43
2018-10-06T19:38:47.212Z,997.43
2018-10-06T19:39:47.204Z,997.42
2018-10-06T19:40:47.119Z,997.43
2018-10-06T19:41:47.111Z,997.44
2018-10-06T19:42:47.115Z,997.44
2018-10-06T19:43:47.097Z,997.44
2018-10-06T19:44:47.369Z,997.46
2018-10-06T19:45:47.078Z,997.48
2018-10-06T19:46:47.067Z,997.45
2018-10-06T19:47:47.049Z,997.49
2018-10-06T19:48:47.042Z,997.43
2018-10-06T19:49:47.056Z,997.45
2018-10-06T19:50:47.053Z,997.48
